Time;durP1;ratioP1;P1;durP2;ratioP2;P2;SDS_P1;SDS_P2;PMS_P1;PMS_P2;Temp;Humidity;BMP_temperature;BMP_pressure;BME280_temperature;BME280_humidity;BME280_pressure;Samples;Min_cycle;Max_cycle;Signal;HPM_P1;HPM_P2
2022/11/05 00:10:30;;;;;;;0.10;0.10;;;;;;;7.61;89.57;95058.44;4342697;32;20298;-62
2022/11/05 00:18:29;;;;;;;0.37;0.37;;;;;;;7.43;91.13;95062.59;4373190;32;20310;-62
2022/11/05 00:20:56;;;;;;;0.10;0.10;;;;;;;7.58;90.56;95065.06;4389380;32;20272;-62
2022/11/05 00:26:08;;;;;;;0.33;0.33;;;;;;;7.66;90.49;95077.66;4404388;32;20240;-61
2022/11/05 00:28:35;;;;;;;0.30;0.30;;;;;;;7.67;90.30;95083.72;4369350;32;20291;-62
2022/11/05 00:31:22;;;;;;;0.30;0.30;;;;;;;7.75;90.24;95083.09;4379313;32;20291;-61
2022/11/05 00:33:52;;;;;;;0.30;0.30;;;;;;;7.51;90.56;95086.50;4389344;32;20287;-61
2022/11/05 00:36:19;;;;;;;0.37;0.37;;;;;;;7.42;91.26;95092.66;4360754;32;20296;-61
2022/11/05 00:38:44;;;;;;;0.33;0.33;;;;;;;7.56;91.28;95093.59;4383604;32;20355;-61
2022/11/05 00:41:09;;;;;;;0.40;0.40;;;;;;;7.79;91.08;95092.03;4381711;32;20295;-61
2022/11/05 00:46:22;;;;;;;0.03;0.03;;;;;;;7.98;90.42;95115.84;4395279;32;20222;-61
2022/11/05 00:51:33;;;;;;;0.50;0.50;;;;;;;8.12;89.85;95106.16;4376160;32;20286;-61
2022/11/05 00:53:59;;;;;;;0.20;0.20;;;;;;;8.12;89.85;95104.31;4385634;32;20287;-62
2022/11/05 00:56:25;;;;;;;2.20;0.43;;;;;;;7.87;90.74;95110.69;4383168;32;20280;-62
2022/11/05 00:58:51;;;;;;;0.17;0.17;;;;;;;7.76;91.80;95109.22;4386785;32;20291;-61
2022/11/05 01:01:18;;;;;;;0.43;0.43;;;;;;;7.48;92.36;95105.53;4388919;32;20264;-61
2022/11/05 01:03:43;;;;;;;0.30;0.30;;;;;;;7.54;93.19;95096.50;4352844;32;20347;-61
2022/11/05 01:06:15;;;;;;;0.70;0.70;;;;;;;7.58;93.18;95102.00;4376472;32;20284;-62
2022/11/05 01:08:42;;;;;;;0.37;0.37;;;;;;;7.50;93.40;95098.13;4384970;32;20241;-62
2022/11/05 01:11:35;;;;;;;0.77;0.77;;;;;;;7.45;93.60;95108.75;4355235;32;20327;-62
2022/11/05 01:14:06;;;;;;;0.30;0.30;;;;;;;7.37;93.80;95098.78;4337033;32;20327;-62
2022/11/05 01:16:32;;;;;;;0.23;0.23;;;;;;;7.37;94.12;95106.69;4339395;32;20282;-61
2022/11/05 01:19:00;;;;;;;0.30;0.30;;;;;;;7.43;94.44;95102.16;4367544;32;20447;-61
2022/11/05 01:21:26;;;;;;;0.40;0.40;;;;;;;7.49;94.28;95112.38;4365942;32;20192;-62
2022/11/05 01:23:54;;;;;;;0.20;0.20;;;;;;;7.58;94.10;95116.00;4380559;32;20301;-62
2022/11/05 01:26:21;;;;;;;0.10;0.10;;;;;;;7.54;94.03;95122.87;4370535;32;20329;-61
2022/11/05 01:28:54;;;;;;;0.60;0.60;;;;;;;7.59;93.86;95125.50;4366763;32;20444;-61
2022/11/05 01:31:21;;;;;;;0.30;0.30;;;;;;;7.71;93.42;95125.09;4339121;32;20327;-61
2022/11/05 01:33:48;;;;;;;0.10;0.10;;;;;;;7.69;93.23;95121.94;4387182;32;20366;-61
2022/11/05 01:36:18;;;;;;;0.67;0.53;;;;;;;7.70;93.02;95128.81;4350307;32;20367;-61
2022/11/05 01:38:45;;;;;;;0.60;0.50;;;;;;;7.68;93.16;95127.53;4366553;32;20373;-61
2022/11/05 01:41:11;;;;;;;0.30;0.30;;;;;;;7.76;92.85;95132.97;4368735;32;20341;-61
2022/11/05 01:43:58;;;;;;;0.60;0.60;;;;;;;7.73;92.86;95130.09;4348475;32;20289;-61
2022/11/05 01:46:45;;;;;;;0.10;0.10;;;;;;;7.79;92.79;95135.06;4363402;32;20303;-64
2022/11/05 01:49:28;;;;;;;0.10;0.10;;;;;;;7.58;93.04;95134.47;4384491;32;20333;-61
2022/11/05 01:51:56;;;;;;;1.00;0.60;;;;;;;7.61;93.31;95141.06;4351411;32;20284;-62
2022/11/05 01:54:28;;;;;;;0.30;0.30;;;;;;;7.50;93.50;95135.06;4384665;32;20393;-61
2022/11/05 01:57:20;;;;;;;0.50;0.50;;;;;;;7.45;93.55;95132.50;4372964;32;20353;-61
2022/11/05 01:59:55;;;;;;;0.50;0.40;;;;;;;7.61;93.46;95138.41;4358155;32;20354;-61
2022/11/05 02:02:24;;;;;;;0.10;0.10;;;;;;;7.62;93.28;95133.91;4373825;32;20329;-61
2022/11/05 02:05:02;;;;;;;0.20;0.20;;;;;;;7.73;93.12;95145.94;4369596;32;20295;-61
2022/11/05 02:07:29;;;;;;;0.30;0.30;;;;;;;7.67;93.12;95144.44;4346801;32;20346;-62
2022/11/05 02:10:09;;;;;;;0.53;0.53;;;;;;;7.51;93.18;95141.91;4395426;32;20279;-61
2022/11/05 02:12:38;;;;;;;0.30;0.30;;;;;;;7.43;93.69;95147.81;4394255;32;20280;-61
2022/11/05 02:15:06;;;;;;;0.70;0.70;;;;;;;7.44;94.07;95144.09;4353529;32;20382;-61
2022/11/05 02:18:22;;;;;;;9.90;0.60;;;;;;;7.55;93.61;95142.94;4379253;32;20359;-62
2022/11/05 02:21:09;;;;;;;0.60;0.53;;;;;;;7.67;93.36;95136.53;4372593;32;20296;-61
2022/11/05 02:24:09;;;;;;;2.33;0.33;;;;;;;7.53;93.42;95142.44;4367256;32;20306;-61
2022/11/05 02:27:00;;;;;;;0.00;0.00;;;;;;;7.49;93.43;95138.75;4382519;32;20284;-61
2022/11/05 02:30:13;;;;;;;0.10;0.10;;;;;;;7.58;93.08;95142.38;4387306;32;20284;-62
2022/11/05 02:33:19;;;;;;;0.20;0.20;;;;;;;7.78;92.82;95137.97;4379517;32;20318;-61
2022/11/05 02:36:03;;;;;;;0.30;0.30;;;;;;;7.92;91.72;95144.16;4376980;32;20387;-61
2022/11/05 02:38:52;;;;;;;0.50;0.50;;;;;;;7.77;91.77;95133.75;4396430;32;20271;-62
2022/11/05 02:41:41;;;;;;;0.20;0.20;;;;;;;7.57;92.60;95138.19;4368761;32;20284;-61
2022/11/05 02:44:38;;;;;;;0.63;0.63;;;;;;;7.61;92.69;95138.41;4388943;32;20348;-62
2022/11/05 02:47:45;;;;;;;1.27;0.37;;;;;;;7.51;92.62;95138.50;4393750;32;20288;-61
2022/11/05 02:50:34;;;;;;;0.80;0.37;;;;;;;7.77;91.62;95136.41;4378483;32;20343;-61
2022/11/05 02:53:18;;;;;;;0.70;0.70;;;;;;;7.56;92.66;95152.44;4362106;32;20286;-61
2022/11/05 02:56:11;;;;;;;0.00;0.00;;;;;;;7.39;93.41;95146.00;4370662;32;20323;-61
2022/11/05 02:58:37;;;;;;;0.17;0.17;;;;;;;7.48;93.18;95150.38;4380529;32;20299;-61
2022/11/05 03:01:05;;;;;;;0.20;0.20;;;;;;;7.47;93.17;95155.97;4396556;32;20322;-61
2022/11/05 03:03:55;;;;;;;0.30;0.30;;;;;;;7.74;91.97;95163.34;4395280;32;20305;-61
2022/11/05 03:06:57;;;;;;;0.30;0.30;;;;;;;7.80;92.12;95164.88;4344243;32;20299;-61
2022/11/05 03:10:00;;;;;;;0.77;0.37;;;;;;;7.83;91.92;95166.97;4380322;32;20288;-60
2022/11/05 03:12:46;;;;;;;0.30;0.30;;;;;;;7.95;91.33;95172.66;4357356;32;20284;-61
2022/11/05 03:16:02;;;;;;;0.20;0.20;;;;;;;7.88;91.20;95180.12;4389334;32;20326;-61
2022/11/05 03:19:10;;;;;;;0.73;0.40;;;;;;;7.92;90.57;95183.78;4320515;33;20290;-61
2022/11/05 03:21:45;;;;;;;0.23;0.23;;;;;;;7.61;92.09;95190.41;4306901;32;20285;-61
2022/11/05 03:24:21;;;;;;;0.37;0.37;;;;;;;7.82;91.49;95197.09;4314672;32;20289;-60
2022/11/05 03:26:50;;;;;;;0.10;0.10;;;;;;;7.70;91.41;95192.16;4332407;32;20284;-61
2022/11/05 03:29:23;;;;;;;0.10;0.10;;;;;;;7.49;92.57;95206.59;4339955;32;20305;-61
2022/11/05 03:31:52;;;;;;;0.10;0.10;;;;;;;7.54;92.27;95215.28;4316026;32;20353;-61
2022/11/05 03:34:23;;;;;;;0.40;0.40;;;;;;;7.58;91.58;95213.66;4332572;32;20321;-61
2022/11/05 03:36:54;;;;;;;0.17;0.17;;;;;;;7.42;92.22;95220.13;4329689;32;20281;-61
2022/11/05 03:39:37;;;;;;;0.30;0.30;;;;;;;7.61;91.72;95224.72;4327074;33;20332;-61
2022/11/05 03:42:06;;;;;;;0.30;0.30;;;;;;;7.62;91.70;95234.22;4336163;32;20289;-61
2022/11/05 03:44:38;;;;;;;0.40;0.40;;;;;;;7.67;91.49;95236.84;4331391;32;20293;-60
2022/11/05 03:47:13;;;;;;;0.30;0.30;;;;;;;7.64;91.65;95237.37;4315012;32;20361;-61
2022/11/05 03:50:06;;;;;;;0.57;0.30;;;;;;;7.57;91.61;95241.12;4400695;32;20291;-60
2022/11/05 03:52:46;;;;;;;0.30;0.30;;;;;;;7.83;90.88;95249.62;4387963;32;20272;-61
2022/11/05 03:55:19;;;;;;;0.43;0.43;;;;;;;7.87;90.60;95247.22;4354107;32;20280;-61
2022/11/05 03:57:51;;;;;;;0.20;0.20;;;;;;;7.79;91.12;95255.72;4388010;32;20370;-61
2022/11/05 04:00:21;;;;;;;0.00;0.00;;;;;;;7.94;90.69;95252.94;4397333;32;20358;-61
2022/11/05 04:02:49;;;;;;;0.00;0.00;;;;;;;8.05;90.14;95251.03;4364688;32;20339;-61
2022/11/05 04:05:16;;;;;;;0.30;0.30;;;;;;;8.08;90.04;95253.91;4387827;32;20367;-61
2022/11/05 04:13:24;;;;;;;0.20;0.20;;;;;;;8.03;91.04;95261.06;4373760;32;20298;-60
2022/11/05 04:18:38;;;;;;;0.50;0.50;;;;;;;8.23;90.21;95256.38;4387276;32;20316;-61
2022/11/05 04:26:43;;;;;;;0.20;0.20;;;;;;;8.09;91.91;95258.13;4390211;32;20306;-61
2022/11/05 04:31:57;;;;;;;0.30;0.30;;;;;;;7.84;94.93;95263.62;4397945;32;20294;-61
2022/11/05 04:34:24;;;;;;;0.50;0.50;;;;;;;8.05;94.59;95259.72;4408851;32;20268;-60
2022/11/05 04:36:51;;;;;;;0.37;0.37;;;;;;;8.14;94.09;95258.03;4393600;32;20189;-61
2022/11/05 04:39:20;;;;;;;0.20;0.20;;;;;;;8.13;93.79;95255.69;4400105;32;20263;-61
2022/11/05 04:41:47;;;;;;;0.27;0.27;;;;;;;8.10;94.25;95264.97;4377041;32;20272;-60
2022/11/05 04:44:18;;;;;;;0.20;0.20;;;;;;;8.25;94.28;95269.31;4406191;32;20280;-61
2022/11/05 04:46:45;;;;;;;0.97;0.33;;;;;;;7.96;95.46;95266.69;4393363;32;20284;-61
2022/11/05 04:49:12;;;;;;;1.67;0.60;;;;;;;7.98;95.90;95275.09;4400871;32;20292;-61
2022/11/05 04:51:37;;;;;;;0.57;0.57;;;;;;;7.96;96.21;95276.44;4363868;32;20293;-61
2022/11/05 04:54:04;;;;;;;0.43;0.33;;;;;;;7.72;96.82;95277.16;4358055;32;20273;-61
2022/11/05 04:56:30;;;;;;;0.27;0.27;;;;;;;7.62;97.66;95279.09;4359905;32;20244;-61
2022/11/05 04:58:56;;;;;;;0.53;0.53;;;;;;;7.63;98.44;95281.47;4399835;32;20275;-61
2022/11/05 05:01:24;;;;;;;0.17;0.17;;;;;;;7.66;98.28;95282.78;4402283;32;20292;-61
2022/11/05 05:03:52;;;;;;;0.10;0.10;;;;;;;7.83;98.12;95286.59;4392336;32;20192;-61
2022/11/05 05:06:18;;;;;;;0.50;0.50;;;;;;;7.66;98.62;95293.34;4390760;32;20272;-61
2022/11/05 05:08:49;;;;;;;0.30;0.30;;;;;;;7.85;98.86;95286.31;4402395;32;20276;-61
2022/11/05 05:11:18;;;;;;;0.90;0.90;;;;;;;7.93;98.58;95293.63;4317725;32;20357;-61
2022/11/05 05:13:46;;;;;;;0.97;0.50;;;;;;;7.86;98.79;95296.63;4346486;32;20352;-61
2022/11/05 05:16:26;;;;;;;1.30;0.70;;;;;;;8.16;97.71;95286.84;4364443;32;20281;-61
2022/11/05 05:18:53;;;;;;;0.43;0.43;;;;;;;7.94;98.53;95289.94;4352964;32;20283;-61
2022/11/05 05:21:40;;;;;;;0.27;0.27;;;;;;;7.92;98.85;95303.41;4367017;32;20355;-61
2022/11/05 05:24:14;;;;;;;0.50;0.50;;;;;;;7.88;98.91;95296.34;4356753;32;20325;-61
2022/11/05 05:26:47;;;;;;;0.73;0.73;;;;;;;8.02;98.48;95301.75;4371556;32;20360;-61
2022/11/05 05:29:13;;;;;;;0.37;0.37;;;;;;;8.04;98.77;95299.63;4348958;32;20323;-61
2022/11/05 05:31:41;;;;;;;0.67;0.67;;;;;;;8.09;98.50;95310.16;4346338;32;20308;-61
2022/11/05 05:34:15;;;;;;;0.10;0.10;;;;;;;8.11;98.06;95306.16;4346231;32;20402;-61
2022/11/05 05:36:45;;;;;;;0.93;0.90;;;;;;;8.06;98.55;95311.50;4375786;32;20269;-61
2022/11/05 05:39:10;;;;;;;0.70;0.70;;;;;;;8.22;97.64;95312.94;4366498;32;20292;-61
2022/11/05 05:41:35;;;;;;;0.67;0.67;;;;;;;8.20;97.72;95309.78;4302224;32;20302;-61
2022/11/05 05:44:05;;;;;;;0.20;0.20;;;;;;;8.15;98.38;95312.47;4378816;32;20201;-61
2022/11/05 05:46:32;;;;;;;0.30;0.30;;;;;;;8.22;97.93;95315.59;4367357;32;20319;-61
2022/11/05 05:48:59;;;;;;;0.73;0.73;;;;;;;8.35;97.07;95311.53;4374531;32;20339;-61
2022/11/05 05:51:27;;;;;;;0.47;0.47;;;;;;;8.47;97.04;95313.81;4383789;32;20287;-62
2022/11/05 05:53:54;;;;;;;3.93;0.73;;;;;;;8.46;96.92;95322.81;4374183;32;20338;-61
2022/11/05 05:56:21;;;;;;;0.20;0.20;;;;;;;8.32;97.11;95324.47;4372960;32;20294;-61
2022/11/05 05:58:48;;;;;;;1.30;0.20;;;;;;;8.21;98.17;95326.44;4389022;32;22876;-61
2022/11/05 06:01:22;;;;;;;0.57;0.57;;;;;;;8.13;98.60;95325.16;4384622;32;20295;-61
2022/11/05 06:03:49;;;;;;;2.13;0.87;;;;;;;8.03;99.08;95322.63;4390178;32;20381;-61
2022/11/05 06:06:22;;;;;;;1.00;0.93;;;;;;;8.11;99.21;95329.94;4376424;32;20335;-61
2022/11/05 06:08:50;;;;;;;0.50;0.50;;;;;;;8.10;99.38;95331.03;4365332;32;20387;-61
2022/11/05 06:11:17;;;;;;;0.40;0.40;;;;;;;8.15;99.43;95328.31;4359707;32;20273;-61
2022/11/05 06:13:42;;;;;;;0.70;0.70;;;;;;;8.19;99.39;95329.34;4384810;32;20401;-60
2022/11/05 06:16:08;;;;;;;0.53;0.53;;;;;;;8.28;99.22;95332.97;4373625;32;20482;-61
2022/11/05 06:18:36;;;;;;;0.57;0.57;;;;;;;8.27;98.86;95335.91;4366846;32;20184;-61
2022/11/05 06:21:22;;;;;;;0.37;0.37;;;;;;;8.38;98.58;95337.41;4352669;32;20288;-60
2022/11/05 06:23:48;;;;;;;0.27;0.27;;;;;;;8.36;98.90;95338.75;4361736;32;20307;-61
2022/11/05 06:26:17;;;;;;;0.73;0.30;;;;;;;8.41;98.21;95347.41;4371066;32;20327;-61
2022/11/05 06:28:47;;;;;;;0.37;0.37;;;;;;;8.33;98.37;95355.16;4340854;32;20269;-61
2022/11/05 06:31:13;;;;;;;4.83;0.97;;;;;;;8.18;99.15;95361.34;4367477;32;20276;-61
2022/11/05 06:33:39;;;;;;;0.47;0.47;;;;;;;8.22;99.00;95362.38;4365912;32;20391;-61
2022/11/05 06:36:16;;;;;;;0.70;0.70;;;;;;;8.20;99.66;95367.91;4350758;32;20291;-61
2022/11/05 06:38:41;;;;;;;0.67;0.67;;;;;;;8.26;99.48;95369.47;4357017;32;20268;-60
2022/11/05 06:41:07;;;;;;;0.67;0.67;;;;;;;8.37;99.19;95372.03;4352767;32;20288;-61
2022/11/05 06:43:33;;;;;;;0.47;0.47;;;;;;;8.26;99.05;95372.09;4379706;32;20210;-61
2022/11/05 06:46:01;;;;;;;0.93;0.93;;;;;;;8.32;99.54;95372.84;4389842;32;20311;-61
2022/11/05 06:48:27;;;;;;;2.47;1.13;;;;;;;8.38;99.67;95376.25;4376895;32;20181;-64
2022/11/05 06:50:59;;;;;;;0.27;0.27;;;;;;;8.34;99.62;95385.81;4382194;32;20314;-61
2022/11/05 06:53:26;;;;;;;1.27;1.27;;;;;;;8.35;100.00;95390.03;4385697;32;20298;-61
2022/11/05 06:55:53;;;;;;;0.63;0.53;;;;;;;8.46;99.84;95392.31;4406421;32;20328;-61
2022/11/05 06:58:19;;;;;;;0.50;0.50;;;;;;;8.41;99.98;95396.84;4365978;32;20277;-61
2022/11/05 07:00:46;;;;;;;0.57;0.57;;;;;;;8.44;99.69;95409.53;4390381;32;20457;-61
2022/11/05 07:03:15;;;;;;;0.80;0.80;;;;;;;8.29;99.66;95407.75;4368651;32;20280;-61
2022/11/05 07:05:51;;;;;;;0.50;0.50;;;;;;;8.34;100.00;95414.88;4388844;32;20201;-61
2022/11/05 07:08:16;;;;;;;2.07;1.27;;;;;;;8.39;100.00;95412.19;4394843;32;20317;-61
2022/11/05 07:10:43;;;;;;;1.50;0.87;;;;;;;8.34;100.00;95414.88;4386862;32;20288;-60
2022/11/05 07:13:08;;;;;;;1.10;1.10;;;;;;;8.48;100.00;95418.47;4384552;32;20197;-61
2022/11/05 07:15:36;;;;;;;1.00;1.00;;;;;;;8.46;100.00;95428.53;4397823;32;20298;-61
2022/11/05 07:18:09;;;;;;;0.70;0.70;;;;;;;8.64;99.98;95419.91;4356439;32;20189;-61
2022/11/05 07:20:36;;;;;;;1.30;1.30;;;;;;;8.47;100.00;95435.41;4363818;32;20351;-61
2022/11/05 07:23:10;;;;;;;1.00;0.93;;;;;;;8.43;100.00;95429.09;4380499;32;20320;-61
2022/11/05 07:25:38;;;;;;;0.97;0.97;;;;;;;8.56;100.00;95434.53;4381573;32;20284;-61
2022/11/05 07:28:04;;;;;;;0.57;0.57;;;;;;;8.63;100.00;95439.50;4393010;32;20280;-61
2022/11/05 07:30:33;;;;;;;0.83;0.83;;;;;;;8.78;99.52;95436.72;4385728;32;20283;-61
2022/11/05 07:33:01;;;;;;;0.90;0.90;;;;;;;8.68;100.00;95442.09;4349614;32;20331;-61
2022/11/05 07:35:27;;;;;;;16.97;1.30;;;;;;;8.65;100.00;95447.16;4377391;32;20280;-61
2022/11/05 07:37:54;;;;;;;0.60;0.60;;;;;;;8.68;100.00;95446.59;4389093;32;20431;-61
2022/11/05 07:40:23;;;;;;;0.40;0.40;;;;;;;8.84;100.00;95451.47;4379785;32;20254;-61
2022/11/05 07:42:57;;;;;;;0.87;0.87;;;;;;;8.71;99.96;95454.78;4366210;32;20328;-61
2022/11/05 07:45:26;;;;;;;0.80;0.80;;;;;;;8.91;99.66;95448.50;4364874;32;20223;-61
2022/11/05 07:47:55;;;;;;;1.17;1.17;;;;;;;8.86;99.55;95449.34;4391057;32;20334;-61
2022/11/05 07:50:24;;;;;;;1.03;1.03;;;;;;;8.78;100.00;95451.78;4346527;32;20184;-61
2022/11/05 07:52:50;;;;;;;1.07;0.63;;;;;;;8.72;100.00;95453.72;4352338;32;20280;-61
2022/11/05 07:55:23;;;;;;;0.60;0.60;;;;;;;8.65;100.00;95455.09;4372100;32;20359;-61
2022/11/05 07:57:50;;;;;;;1.40;1.40;;;;;;;8.62;100.00;95459.06;4383297;32;20188;-61
2022/11/05 08:00:19;;;;;;;0.73;0.73;;;;;;;8.63;100.00;95465.94;4364063;32;20358;-61
2022/11/05 08:02:58;;;;;;;0.93;0.93;;;;;;;8.63;100.00;95473.87;4378352;32;20359;-61
2022/11/05 08:05:26;;;;;;;1.17;1.07;;;;;;;8.62;100.00;95469.66;4345167;32;20295;-61
2022/11/05 08:07:57;;;;;;;1.27;1.17;;;;;;;8.64;100.00;95472.81;4386700;32;20279;-61
2022/11/05 08:10:26;;;;;;;0.90;0.90;;;;;;;8.71;100.00;95475.94;4371442;32;20356;-61
2022/11/05 08:12:52;;;;;;;1.00;1.00;;;;;;;8.84;100.00;95466.56;4348966;32;20280;-61
2022/11/05 08:15:19;;;;;;;1.57;1.47;;;;;;;8.87;100.00;95466.00;4393505;32;20371;-61
2022/11/05 08:17:48;;;;;;;1.17;1.17;;;;;;;8.81;100.00;95456.53;4362161;32;20364;-61
2022/11/05 08:20:15;;;;;;;1.70;1.10;;;;;;;9.02;100.00;95467.72;4349789;32;20347;-61
2022/11/05 08:22:45;;;;;;;1.20;1.20;;;;;;;9.16;100.00;95468.63;4347406;32;20188;-61
2022/11/05 08:25:12;;;;;;;2.07;1.50;;;;;;;9.05;100.00;95467.94;4339047;32;20194;-61
2022/11/05 08:27:39;;;;;;;1.50;1.40;;;;;;;8.99;100.00;95470.91;4342878;32;20226;-61
2022/11/05 08:30:11;;;;;;;1.17;1.17;;;;;;;9.08;100.00;95474.53;4347631;32;20192;-61
2022/11/05 08:32:37;;;;;;;1.13;1.13;;;;;;;9.13;100.00;95474.50;4382564;32;20257;-61
2022/11/05 08:35:05;;;;;;;1.90;0.70;;;;;;;9.07;100.00;95481.69;4378109;32;20193;-61
2022/11/05 08:37:33;;;;;;;1.50;1.40;;;;;;;9.14;100.00;95476.09;4378681;32;20189;-61
2022/11/05 08:39:59;;;;;;;2.17;1.90;;;;;;;9.13;100.00;95474.50;4374343;32;20229;-61
2022/11/05 08:42:29;;;;;;;1.43;1.43;;;;;;;9.20;100.00;95472.28;4371008;32;20176;-62
2022/11/05 08:45:18;;;;;;;1.23;1.23;;;;;;;9.22;100.00;95480.75;4372368;32;20189;-61
2022/11/05 08:47:45;;;;;;;1.70;1.67;;;;;;;9.21;100.00;95479.94;4365768;32;20206;-61
2022/11/05 08:50:12;;;;;;;0.97;0.97;;;;;;;9.16;100.00;95473.91;4332791;32;20184;-61
2022/11/05 08:52:42;;;;;;;1.20;1.20;;;;;;;9.15;100.00;95473.13;4398864;32;20188;-61
2022/11/05 08:55:12;;;;;;;2.03;1.43;;;;;;;9.16;100.00;95473.91;4382754;32;20264;-61
2022/11/05 08:57:39;;;;;;;1.27;1.17;;;;;;;9.17;100.00;95472.84;4374953;32;20230;-61
2022/11/05 09:00:06;;;;;;;1.20;1.20;;;;;;;9.11;100.00;95466.84;4392940;32;20245;-61
2022/11/05 09:02:34;;;;;;;0.80;0.80;;;;;;;9.26;100.00;95474.63;4384515;32;20242;-61
2022/11/05 09:05:04;;;;;;;1.03;1.03;;;;;;;9.36;100.00;95467.63;4380797;32;20360;-61
2022/11/05 09:07:30;;;;;;;1.77;1.77;;;;;;;9.40;100.00;95480.03;4354564;32;20258;-61
2022/11/05 09:09:55;;;;;;;1.50;1.40;;;;;;;9.39;99.11;95475.78;4374605;32;20191;-58
2022/11/05 09:12:22;;;;;;;1.57;1.57;;;;;;;9.45;99.27;95476.53;4391643;32;20280;-57
2022/11/05 09:14:48;;;;;;;1.37;1.33;;;;;;;9.41;99.36;95481.59;4373247;32;20185;-57
2022/11/05 09:17:20;;;;;;;1.23;1.23;;;;;;;9.41;99.91;95486.91;4370668;32;20289;-57
2022/11/05 09:19:47;;;;;;;0.90;0.90;;;;;;;9.27;99.82;95476.19;4357531;32;20347;-56
2022/11/05 09:22:12;;;;;;;1.77;1.67;;;;;;;9.28;98.56;95482.28;4366408;32;20204;-57
2022/11/05 09:24:43;;;;;;;2.07;0.73;;;;;;;9.46;98.06;95481.56;4359498;32;20200;-57
2022/11/05 09:27:12;;;;;;;0.63;0.63;;;;;;;9.45;98.08;95487.91;4344393;32;20197;-57
2022/11/05 09:29:40;;;;;;;1.10;1.10;;;;;;;9.41;98.22;95497.47;4355160;32;20196;-57
2022/11/05 09:32:10;;;;;;;0.70;0.70;;;;;;;9.33;99.29;95492.81;4356457;32;20192;-57
2022/11/05 09:34:38;;;;;;;0.60;0.60;;;;;;;9.42;99.38;95493.78;4359129;32;20243;-57
2022/11/05 09:37:04;;;;;;;1.10;1.10;;;;;;;9.31;99.60;95492.31;4362069;32;20185;-57
2022/11/05 09:39:30;;;;;;;0.97;0.97;;;;;;;9.30;99.94;95496.03;4374789;32;20313;-57
2022/11/05 09:42:13;;;;;;;0.77;0.77;;;;;;;9.26;100.00;95502.94;4361044;32;20193;-58
2022/11/05 09:45:02;;;;;;;2.17;1.07;;;;;;;9.33;100.00;95499.97;4359809;32;20248;-57
2022/11/05 09:47:52;;;;;;;0.70;0.70;;;;;;;9.45;100.00;95503.00;4376474;32;20272;-57
2022/11/05 09:50:24;;;;;;;0.90;0.90;;;;;;;9.26;100.00;95511.69;4360302;32;20188;-57
2022/11/05 09:52:50;;;;;;;0.40;0.40;;;;;;;9.35;100.00;95513.72;4312480;32;20299;-56
2022/11/05 09:55:40;;;;;;;0.37;0.37;;;;;;;9.17;100.00;95507.25;4369042;32;20189;-57
2022/11/05 09:58:20;;;;;;;0.13;0.13;;;;;;;9.21;100.00;95510.94;4368706;32;20289;-57
2022/11/05 10:00:51;;;;;;;0.30;0.30;;;;;;;9.14;100.00;95513.13;4370109;32;20387;-55
2022/11/05 10:03:25;;;;;;;0.20;0.20;;;;;;;9.18;100.00;95519.41;4357238;32;20180;-56
2022/11/05 10:05:54;;;;;;;0.07;0.07;;;;;;;9.33;100.00;95514.00;4319182;32;20177;-57
2022/11/05 10:08:25;;;;;;;0.27;0.27;;;;;;;9.28;100.00;95519.34;4339991;32;20292;-58
2022/11/05 10:11:03;;;;;;;0.30;0.30;;;;;;;9.36;100.00;95525.88;4362403;32;20340;-57
2022/11/05 10:13:47;;;;;;;0.70;0.70;;;;;;;9.41;100.00;95523.97;4374346;32;20189;-57
2022/11/05 10:16:27;;;;;;;0.70;0.60;;;;;;;9.28;100.00;95527.28;4375279;32;20192;-57
2022/11/05 10:19:16;;;;;;;0.30;0.30;;;;;;;9.38;100.00;95529.03;4379220;32;20188;-57
2022/11/05 10:21:42;;;;;;;0.10;0.10;;;;;;;9.37;100.00;95528.22;4362459;32;20323;-57
2022/11/05 10:24:18;;;;;;;0.53;0.53;;;;;;;9.40;100.00;95532.19;4350244;32;20268;-58
2022/11/05 10:26:51;;;;;;;0.23;0.23;;;;;;;9.15;100.00;95538.50;4358946;32;20199;-57
2022/11/05 10:29:28;;;;;;;0.30;0.30;;;;;;;9.24;100.00;95540.28;4379717;32;20180;-57
2022/11/05 10:31:57;;;;;;;0.53;0.53;;;;;;;9.22;100.00;95539.75;4377127;32;20295;-57
2022/11/05 10:34:37;;;;;;;0.10;0.10;;;;;;;9.09;100.00;95537.78;4382362;32;20169;-57
2022/11/05 10:37:18;;;;;;;0.40;0.40;;;;;;;9.19;100.00;95542.19;4318787;32;20364;-58
2022/11/05 10:39:45;;;;;;;0.50;0.50;;;;;;;9.05;100.00;95541.25;4329050;32;20291;-57
2022/11/05 10:42:48;;;;;;;0.60;0.60;;;;;;;9.26;100.00;95542.66;4348864;32;20255;-57
2022/11/05 10:45:39;;;;;;;0.70;0.70;;;;;;;9.31;100.00;95537.31;4369975;32;20273;-57
2022/11/05 10:48:34;;;;;;;0.30;0.30;;;;;;;9.30;100.00;95535.75;4351544;32;20300;-57
2022/11/05 10:51:01;;;;;;;0.20;0.20;;;;;;;9.43;100.00;95537.72;4344780;32;20228;-58
2022/11/05 10:53:37;;;;;;;0.77;0.43;;;;;;;9.43;100.00;95550.94;4372037;32;20282;-57
2022/11/05 10:56:28;;;;;;;0.23;0.23;;;;;;;9.40;99.83;95548.84;4355090;32;20192;-57
2022/11/05 10:59:03;;;;;;;0.50;0.50;;;;;;;9.34;99.29;95550.00;4356620;32;20248;-56
2022/11/05 11:01:31;;;;;;;1.10;1.10;;;;;;;9.45;99.99;95551.47;4381941;32;20280;-57
2022/11/05 11:04:22;;;;;;;1.17;1.17;;;;;;;9.37;99.74;95559.22;4372656;32;20288;-57
2022/11/05 11:06:54;;;;;;;0.83;0.83;;;;;;;9.34;99.36;95559.78;4364001;32;20244;-57
2022/11/05 11:09:34;;;;;;;0.40;0.40;;;;;;;9.37;99.22;95560.00;4322501;32;20292;-56
2022/11/05 11:12:18;;;;;;;0.20;0.20;;;;;;;9.49;97.87;95563.09;4372580;32;20287;-54
2022/11/05 11:15:11;;;;;;;0.77;0.77;;;;;;;9.39;99.18;95549.13;4368577;32;20189;-57
2022/11/05 11:17:37;;;;;;;0.30;0.30;;;;;;;9.34;99.26;95552.66;4343513;32;20296;-57
2022/11/05 11:20:23;;;;;;;0.67;0.67;;;;;;;9.49;98.94;95544.53;4375510;32;20269;-57
2022/11/05 11:23:12;;;;;;;0.67;0.67;;;;;;;9.43;98.43;95550.94;4370033;32;20185;-57
2022/11/05 11:25:56;;;;;;;0.27;0.27;;;;;;;9.59;98.61;95549.72;4372757;32;20302;-57
2022/11/05 11:28:30;;;;;;;0.50;0.50;;;;;;;9.63;97.97;95548.09;4338902;32;20186;-57
2022/11/05 11:31:19;;;;;;;0.63;0.63;;;;;;;9.81;97.62;95554.53;4370754;32;20177;-58
2022/11/05 11:34:03;;;;;;;0.40;0.40;;;;;;;9.95;97.80;95552.00;4358791;32;21770;-57
2022/11/05 11:36:40;;;;;;;0.67;0.67;;;;;;;9.97;97.20;95557.81;4349978;32;20203;-57
2022/11/05 11:39:24;;;;;;;1.00;1.00;;;;;;;10.05;96.37;95557.16;4329402;32;20231;-57
2022/11/05 11:41:53;;;;;;;2.23;0.40;;;;;;;9.94;95.23;95566.31;4370413;32;20243;-56
2022/11/05 11:44:28;;;;;;;0.63;0.63;;;;;;;9.89;95.63;95561.84;4361361;32;20180;-57
2022/11/05 11:47:00;;;;;;;0.30;0.30;;;;;;;9.89;95.98;95555.78;4377109;32;20204;-57
2022/11/05 11:49:41;;;;;;;0.33;0.33;;;;;;;9.98;94.69;95565.44;4351303;32;20209;-59
2022/11/05 11:52:34;;;;;;;0.37;0.37;;;;;;;9.98;94.87;95559.34;4368499;32;20251;-57
2022/11/05 11:55:21;;;;;;;0.40;0.40;;;;;;;9.79;95.51;95558.53;4357666;32;20226;-57
2022/11/05 11:58:03;;;;;;;0.10;0.10;;;;;;;9.97;95.70;95555.16;4357648;32;20283;-57
2022/11/05 12:00:35;;;;;;;0.13;0.13;;;;;;;9.91;95.47;95559.72;4359063;32;20184;-58
2022/11/05 12:03:30;;;;;;;0.30;0.30;;;;;;;9.99;94.73;95556.44;4347167;32;20197;-58
2022/11/05 12:06:25;;;;;;;0.30;0.30;;;;;;;9.99;94.95;95561.72;4349461;32;20177;-63
2022/11/05 12:09:18;;;;;;;0.30;0.30;;;;;;;9.95;95.05;95568.69;4372026;32;20263;-58
2022/11/05 12:11:51;;;;;;;0.20;0.20;;;;;;;9.88;95.61;95570.88;4340516;32;20188;-57
2022/11/05 12:15:27;;;;;;;0.60;0.60;;;;;;;9.95;94.27;95581.16;4375255;32;20246;-57
2022/11/05 12:18:09;;;;;;;0.77;0.77;;;;;;;9.87;93.64;95581.75;4261785;33;20194;-57
2022/11/05 12:21:03;;;;;;;0.30;0.30;;;;;;;9.75;94.85;95578.72;4314729;33;20223;-58
2022/11/05 12:23:50;;;;;;;0.40;0.40;;;;;;;9.73;95.49;95583.50;4348288;32;20193;-56
2022/11/05 12:26:46;;;;;;;0.50;0.50;;;;;;;9.73;95.89;95583.50;4351330;32;20324;-56
2022/11/05 12:29:32;;;;;;;0.20;0.20;;;;;;;9.59;96.13;95584.16;4370671;32;20193;-57
2022/11/05 12:32:41;;;;;;;0.13;0.13;;;;;;;9.48;97.74;95590.63;4365687;32;20221;-57
2022/11/05 12:35:40;;;;;;;0.20;0.20;;;;;;;9.60;98.37;95591.03;4369928;32;20199;-57
2022/11/05 12:38:42;;;;;;;0.77;0.77;;;;;;;9.44;98.85;95588.81;4373850;32;20204;-56
2022/11/05 12:41:46;;;;;;;0.37;0.37;;;;;;;9.56;99.65;95582.06;4375944;32;20190;-57
2022/11/05 12:44:45;;;;;;;0.63;0.63;;;;;;;9.44;100.00;95584.31;4357329;32;20295;-58
2022/11/05 12:47:25;;;;;;;0.17;0.17;;;;;;;9.63;100.00;95590.47;4370812;32;20336;-57
2022/11/05 12:50:12;;;;;;;0.60;0.60;;;;;;;9.58;100.00;95595.03;4357401;32;20204;-56
2022/11/05 12:53:33;;;;;;;0.20;0.20;;;;;;;9.45;100.00;95593.03;4364038;32;20233;-57
2022/11/05 12:56:08;;;;;;;0.27;0.27;;;;;;;9.48;100.00;95590.63;4337436;32;20203;-65